createdAt,value
2023-02-11T00:00:25.834Z,82.32
2023-02-11T00:01:25.836Z,82.32
2023-02-11T00:02:25.885Z,82.43
2023-02-11T00:03:25.997Z,82.32
2023-02-11T00:04:25.797Z,82.32
2023-02-11T00:05:25.790Z,82.43
2023-02-11T00:06:25.781Z,82.53
2023-02-11T00:07:25.775Z,82.53
2023-02-11T00:08:25.754Z,82.53
2023-02-11T00:09:25.744Z,82.53
2023-02-11T00:10:25.734Z,82.64
2023-02-11T00:11:25.727Z,82.64
2023-02-11T00:12:25.727Z,82.53
2023-02-11T00:13:25.723Z,82.53
2023-02-11T00:14:25.683Z,82.43
2023-02-11T00:15:25.684Z,82.22
2023-02-11T00:16:25.732Z,82.32
2023-02-11T00:17:25.669Z,82.18
2023-02-11T00:18:25.648Z,82.08
2023-02-11T00:19:25.638Z,82.08
2023-02-11T00:20:25.622Z,82.08
2023-02-11T00:21:25.635Z,82.18
2023-02-11T00:22:25.616Z,82.18
2023-02-11T00:23:25.595Z,82.18
2023-02-11T00:24:25.582Z,82.08
2023-02-11T00:25:25.582Z,81.98
2023-02-11T00:26:25.569Z,81.87
2023-02-11T00:27:25.573Z,81.87
2023-02-11T00:28:25.627Z,81.98
2023-02-11T00:29:25.531Z,81.87
2023-02-11T00:30:25.581Z,81.98
2023-02-11T00:31:25.739Z,81.98
2023-02-11T00:32:25.504Z,81.98
2023-02-11T00:33:25.495Z,82.08
2023-02-11T00:34:25.472Z,82.18
2023-02-11T00:35:25.474Z,82.29
2023-02-11T00:36:25.456Z,82.32
2023-02-11T00:37:25.470Z,82.32
2023-02-11T00:38:25.445Z,82.53
2023-02-11T00:39:25.429Z,82.53
2023-02-11T00:40:25.415Z,82.74
2023-02-11T00:41:25.531Z,82.64
2023-02-11T00:42:25.394Z,82.50
2023-02-11T00:43:25.404Z,82.50
2023-02-11T00:44:25.375Z,82.60
2023-02-11T00:45:25.364Z,82.60
2023-02-11T00:46:25.453Z,82.50
2023-02-11T00:47:25.342Z,82.39
2023-02-11T00:48:25.340Z,82.50
2023-02-11T00:49:25.338Z,82.39
2023-02-11T00:50:25.305Z,82.18
2023-02-11T00:51:25.303Z,82.18
2023-02-11T00:52:25.289Z,82.18
2023-02-11T00:53:25.293Z,82.18
2023-02-11T00:54:25.264Z,82.18
2023-02-11T00:55:25.259Z,82.29
2023-02-11T00:56:25.241Z,82.18
2023-02-11T00:57:25.242Z,82.18
2023-02-11T00:58:25.241Z,82.18
2023-02-11T00:59:25.218Z,82.29
2023-02-11T01:00:25.204Z,82.29
2023-02-11T01:01:25.317Z,82.08
2023-02-11T01:02:25.192Z,82.18
2023-02-11T01:03:25.279Z,82.18
2023-02-11T01:04:25.159Z,82.18
2023-02-11T01:05:25.237Z,82.18
2023-02-11T01:06:25.171Z,82.04
2023-02-11T01:07:25.149Z,82.04
2023-02-11T01:08:25.162Z,82.08
2023-02-11T01:09:25.121Z,82.08
2023-02-11T01:10:25.108Z,82.29
2023-02-11T01:11:25.092Z,82.29
2023-02-11T01:12:25.079Z,82.39
2023-02-11T01:13:25.090Z,82.50
2023-02-11T01:14:25.061Z,82.60
2023-02-11T01:15:25.058Z,82.70
2023-02-11T01:16:25.141Z,82.81
2023-02-11T01:17:25.031Z,82.91
2023-02-11T01:18:25.037Z,82.91
2023-02-11T01:19:25.010Z,83.01
2023-02-11T01:20:25.003Z,83.12
2023-02-11T01:21:24.994Z,83.22
2023-02-11T01:22:24.992Z,83.33
2023-02-11T01:23:24.988Z,83.64
2023-02-11T01:24:24.964Z,83.84
2023-02-11T01:25:24.960Z,84.05
2023-02-11T01:26:24.945Z,84.27
2023-02-11T01:27:24.936Z,84.27
2023-02-11T01:28:25.093Z,84.27
2023-02-11T01:29:24.945Z,84.37
2023-02-11T01:30:24.894Z,84.37
2023-02-11T01:31:24.919Z,84.37
2023-02-11T01:32:24.879Z,84.47
2023-02-11T01:33:24.920Z,84.47
2023-02-11T01:34:24.851Z,84.47
2023-02-11T01:35:24.843Z,84.37
2023-02-11T01:36:24.841Z,84.37
2023-02-11T01:37:24.822Z,84.37
2023-02-11T01:38:24.834Z,84.37
2023-02-11T01:39:24.803Z,84.27
2023-02-11T01:40:24.788Z,84.27
2023-02-11T01:41:24.783Z,84.16
2023-02-11T01:42:24.777Z,84.27
2023-02-11T01:43:24.770Z,84.16
2023-02-11T01:44:24.767Z,84.05
2023-02-11T01:45:24.743Z,83.91
2023-02-11T01:46:24.798Z,83.81
2023-02-11T01:47:24.718Z,83.70
2023-02-11T01:48:24.725Z,83.70
2023-02-11T01:49:24.729Z,83.60
2023-02-11T01:50:24.693Z,83.60
2023-02-11T01:51:24.679Z,83.60
2023-02-11T01:52:24.669Z,83.50
2023-02-11T01:53:24.707Z,83.39
2023-02-11T01:54:24.649Z,83.29
2023-02-11T01:55:24.630Z,83.39
2023-02-11T01:56:24.629Z,83.29
2023-02-11T01:57:24.653Z,83.18
2023-02-11T01:58:24.620Z,83.08
2023-02-11T01:59:24.587Z,83.08
2023-02-11T02:00:24.586Z,83.08
2023-02-11T02:01:24.640Z,83.08
2023-02-11T02:02:24.566Z,83.08
2023-02-11T02:03:24.615Z,83.18
2023-02-11T02:04:24.543Z,83.18
2023-02-11T02:05:24.526Z,83.04
2023-02-11T02:06:24.530Z,82.94
2023-02-11T02:07:24.516Z,82.84
2023-02-11T02:08:24.532Z,82.84
2023-02-11T02:09:24.506Z,82.84
2023-02-11T02:10:24.476Z,82.84
2023-02-11T02:11:24.470Z,82.84
2023-02-11T02:12:24.467Z,82.84
2023-02-11T02:13:24.452Z,82.84
2023-02-11T02:14:24.437Z,82.84
2023-02-11T02:15:24.425Z,82.84
2023-02-11T02:16:24.475Z,82.84
2023-02-11T02:17:24.410Z,82.84
2023-02-11T02:18:24.440Z,82.84
2023-02-11T02:19:24.381Z,82.84
2023-02-11T02:20:24.368Z,82.84
2023-02-11T02:21:24.364Z,82.94
2023-02-11T02:22:24.360Z,82.94
2023-02-11T02:23:24.401Z,83.01
2023-02-11T02:24:24.329Z,83.01
2023-02-11T02:25:24.341Z,83.01
2023-02-11T02:26:24.331Z,83.01
2023-02-11T02:27:24.294Z,83.01
2023-02-11T02:28:24.390Z,83.01
2023-02-11T02:29:24.302Z,83.11
2023-02-11T02:30:24.431Z,83.01
2023-02-11T02:31:24.261Z,83.01
2023-02-11T02:32:24.295Z,83.01
2023-02-11T02:33:24.279Z,83.11
2023-02-11T02:34:24.226Z,83.01
2023-02-11T02:35:24.266Z,83.11
2023-02-11T02:36:24.254Z,83.07
2023-02-11T02:37:24.191Z,83.07
2023-02-11T02:38:24.223Z,82.97
2023-02-11T02:39:24.188Z,82.97
2023-02-11T02:40:24.166Z,83.07
2023-02-11T02:41:24.156Z,83.07
2023-02-11T02:42:24.144Z,83.07
2023-02-11T02:43:24.129Z,83.07
2023-02-11T02:44:24.159Z,83.07
2023-02-11T02:45:24.101Z,82.97
2023-02-11T02:46:24.140Z,83.07
2023-02-11T02:47:24.084Z,83.07
2023-02-11T02:48:24.089Z,83.07
2023-02-11T02:49:24.098Z,83.17
2023-02-11T02:50:24.062Z,83.03
2023-02-11T02:51:24.057Z,83.03
2023-02-11T02:52:24.039Z,83.03
2023-02-11T02:53:24.063Z,83.03
2023-02-11T02:54:24.023Z,83.14
2023-02-11T02:55:24.011Z,83.14
2023-02-11T02:56:24.003Z,83.24
2023-02-11T02:57:23.979Z,83.24
2023-02-11T02:58:24.005Z,83.24
2023-02-11T02:59:23.968Z,83.24
2023-02-11T03:00:23.964Z,83.24
2023-02-11T03:01:23.939Z,83.24
2023-02-11T03:02:23.940Z,83.24
2023-02-11T03:03:23.978Z,83.34
2023-02-11T03:04:23.919Z,83.34
2023-02-11T03:05:23.904Z,83.34
2023-02-11T03:06:23.904Z,83.34
2023-02-11T03:07:23.880Z,83.34
2023-02-11T03:08:23.916Z,83.34
2023-02-11T03:09:23.865Z,83.34
2023-02-11T03:10:23.897Z,83.45
2023-02-11T03:11:23.852Z,83.55
2023-02-11T03:12:23.833Z,83.51
2023-02-11T03:13:23.833Z,83.55
2023-02-11T03:14:23.816Z,83.45
2023-02-11T03:15:23.809Z,83.45
2023-02-11T03:16:23.811Z,83.41
2023-02-11T03:17:23.792Z,83.51
2023-02-11T03:18:23.807Z,83.51
2023-02-11T03:19:23.782Z,83.51
2023-02-11T03:20:23.758Z,83.51
2023-02-11T03:21:23.752Z,83.62
2023-02-11T03:22:23.728Z,83.62
2023-02-11T03:23:23.810Z,83.72
2023-02-11T03:24:23.713Z,83.83
2023-02-11T03:25:23.693Z,83.93
2023-02-11T03:26:23.689Z,83.93
2023-02-11T03:27:23.674Z,83.93
2023-02-11T03:28:23.701Z,84.03
2023-02-11T03:29:23.654Z,84.03
2023-02-11T03:30:23.648Z,84.03
2023-02-11T03:31:23.921Z,84.03
2023-02-11T03:32:23.627Z,84.03
2023-02-11T03:33:23.618Z,84.13
2023-02-11T03:34:23.650Z,84.13
2023-02-11T03:35:23.590Z,84.13
2023-02-11T03:36:23.594Z,84.13
2023-02-11T03:37:23.578Z,84.23
2023-02-11T03:38:23.589Z,84.34
2023-02-11T03:39:23.546Z,84.34
2023-02-11T03:40:23.557Z,84.34
2023-02-11T03:41:23.529Z,84.34
2023-02-11T03:42:23.522Z,84.34
2023-02-11T03:43:23.519Z,84.34
2023-02-11T03:44:23.506Z,84.34
2023-02-11T03:45:23.491Z,84.44
2023-02-11T03:46:23.487Z,84.44
2023-02-11T03:47:23.470Z,84.44
2023-02-11T03:48:23.470Z,84.44
2023-02-11T03:49:23.446Z,84.55
2023-02-11T03:50:23.452Z,84.65
2023-02-11T03:51:23.428Z,84.65
2023-02-11T03:52:23.431Z,84.75
2023-02-11T03:53:23.405Z,84.75
2023-02-11T03:54:23.401Z,84.86
2023-02-11T03:55:23.374Z,84.86
2023-02-11T03:56:23.376Z,84.86
2023-02-11T03:57:23.359Z,84.86
2023-02-11T03:58:23.374Z,84.86
2023-02-11T03:59:23.363Z,84.86
2023-02-11T04:00:23.352Z,85.06
2023-02-11T04:01:23.352Z,85.17
2023-02-11T04:02:23.326Z,85.17
2023-02-11T04:03:23.363Z,85.17
2023-02-11T04:04:23.316Z,85.17
2023-02-11T04:05:23.279Z,85.27
2023-02-11T04:06:23.290Z,85.27
2023-02-11T04:07:23.255Z,85.27
2023-02-11T04:08:23.333Z,85.34
2023-02-11T04:09:23.246Z,85.27
2023-02-11T04:10:23.237Z,85.34
2023-02-11T04:11:23.228Z,85.38
2023-02-11T04:12:23.227Z,85.44
2023-02-11T04:13:23.211Z,85.44
2023-02-11T04:14:23.203Z,85.44
2023-02-11T04:15:23.172Z,85.55
2023-02-11T04:16:23.210Z,85.55
2023-02-11T04:17:23.156Z,85.55
2023-02-11T04:18:23.169Z,85.65
2023-02-11T04:19:23.133Z,85.75
2023-02-11T04:20:23.130Z,85.86
2023-02-11T04:21:23.109Z,85.96
2023-02-11T04:22:23.103Z,85.96
2023-02-11T04:23:23.159Z,86.07
2023-02-11T04:24:23.087Z,86.07
2023-02-11T04:25:23.099Z,86.07
2023-02-11T04:26:23.059Z,86.07
2023-02-11T04:27:23.056Z,86.07
2023-02-11T04:28:23.098Z,86.17
2023-02-11T04:29:23.036Z,86.27
2023-02-11T04:30:23.037Z,86.47
2023-02-11T04:31:23.125Z,86.47
2023-02-11T04:32:23.000Z,86.47
2023-02-11T04:33:22.980Z,86.47
2023-02-11T04:34:23.000Z,86.58
2023-02-11T04:35:22.978Z,86.68
2023-02-11T04:36:22.961Z,86.68
2023-02-11T04:37:22.949Z,86.68
2023-02-11T04:38:22.933Z,86.68
2023-02-11T04:39:22.938Z,86.99
2023-02-11T04:40:22.916Z,86.99
2023-02-11T04:41:22.908Z,86.89
2023-02-11T04:42:22.906Z,86.89
2023-02-11T04:43:22.889Z,86.99
2023-02-11T04:44:22.889Z,86.99
2023-02-11T04:45:22.869Z,87.10
2023-02-11T04:46:22.971Z,87.16
2023-02-11T04:47:22.851Z,87.30
2023-02-11T04:48:22.828Z,87.30
2023-02-11T04:49:22.856Z,87.27
2023-02-11T04:50:22.814Z,87.62
2023-02-11T04:51:22.808Z,87.93
2023-02-11T04:52:22.837Z,88.09
2023-02-11T04:53:22.787Z,88.13
2023-02-11T04:54:22.785Z,88.24
2023-02-11T04:55:22.775Z,88.20
2023-02-11T04:56:22.745Z,88.09
2023-02-11T04:57:22.743Z,88.30
2023-02-11T04:58:22.724Z,88.30
2023-02-11T04:59:22.741Z,88.30
2023-02-11T05:00:22.702Z,88.65
2023-02-11T05:01:22.731Z,88.76
2023-02-11T05:02:22.684Z,88.86
2023-02-11T05:03:22.682Z,88.86
2023-02-11T05:04:22.815Z,89.07
2023-02-11T05:05:22.652Z,89.17
2023-02-11T05:06:22.635Z,89.28
2023-02-11T05:07:22.769Z,89.28
2023-02-11T05:08:22.632Z,89.48
2023-02-11T05:09:22.622Z,89.48
2023-02-11T05:10:22.602Z,89.69
2023-02-11T05:11:22.607Z,89.69
2023-02-11T05:12:22.578Z,89.69
2023-02-11T05:13:22.578Z,89.58
2023-02-11T05:14:22.561Z,89.69
2023-02-11T05:15:22.580Z,89.79
2023-02-11T05:16:22.578Z,89.79
2023-02-11T05:17:22.540Z,89.89
2023-02-11T05:18:22.516Z,90.00
2023-02-11T05:19:22.596Z,90.00
2023-02-11T05:20:22.505Z,90.10
2023-02-11T05:21:22.490Z,90.10
2023-02-11T05:22:22.482Z,90.10
2023-02-11T05:23:22.471Z,90.10
2023-02-11T05:24:22.468Z,90.10
2023-02-11T05:25:22.462Z,90.00
2023-02-11T05:26:22.430Z,90.10
2023-02-11T05:27:22.437Z,90.10
2023-02-11T05:28:22.450Z,90.10
2023-02-11T05:29:22.438Z,90.10
2023-02-11T05:30:22.411Z,90.10
2023-02-11T05:31:22.412Z,90.00
2023-02-11T05:32:22.378Z,90.00
2023-02-11T05:33:22.367Z,90.00
2023-02-11T05:34:22.372Z,90.20
2023-02-11T05:35:22.349Z,90.31
2023-02-11T05:36:22.334Z,90.41
2023-02-11T05:37:22.383Z,90.41
2023-02-11T05:38:22.312Z,90.41
2023-02-11T05:39:22.323Z,90.41
2023-02-11T05:40:22.301Z,90.41
2023-02-11T05:41:22.302Z,90.41
2023-02-11T05:42:22.261Z,90.62
2023-02-11T05:43:22.260Z,90.62
2023-02-11T05:44:22.255Z,90.62
2023-02-11T05:45:22.233Z,90.72
2023-02-11T05:46:22.279Z,90.83
2023-02-11T05:47:22.235Z,90.83
2023-02-11T05:48:22.197Z,90.93
2023-02-11T05:49:22.210Z,90.83
2023-02-11T05:50:22.192Z,91.14
2023-02-11T05:51:22.212Z,91.14
2023-02-11T05:52:22.165Z,91.24
2023-02-11T05:53:22.163Z,91.35
2023-02-11T05:54:22.227Z,91.45
2023-02-11T05:55:22.137Z,91.55
2023-02-11T05:56:22.114Z,91.66
2023-02-11T05:57:22.104Z,91.66
2023-02-11T05:58:22.104Z,91.76
2023-02-11T05:59:22.115Z,91.76
2023-02-11T06:00:22.073Z,91.86
2023-02-11T06:01:22.074Z,92.07
2023-02-11T06:02:22.108Z,92.13
2023-02-11T06:03:22.107Z,92.07
2023-02-11T06:04:22.052Z,92.18
2023-02-11T06:05:22.024Z,92.24
2023-02-11T06:06:21.972Z,92.34
2023-02-11T06:07:21.947Z,92.55
2023-02-11T06:08:21.995Z,92.65
2023-02-11T06:09:22.016Z,92.65
2023-02-11T06:10:21.976Z,92.55
2023-02-11T06:11:21.920Z,92.65
2023-02-11T06:12:21.895Z,92.85
2023-02-11T06:13:21.888Z,92.96
2023-02-11T06:14:21.907Z,92.96
2023-02-11T06:15:21.883Z,92.85
2023-02-11T06:16:21.892Z,93.06
2023-02-11T06:17:21.850Z,93.06
2023-02-11T06:18:21.845Z,93.16
2023-02-11T06:19:21.834Z,93.27
2023-02-11T06:20:21.834Z,93.27
2023-02-11T06:21:21.805Z,93.37
2023-02-11T06:22:21.790Z,93.37
2023-02-11T06:23:21.781Z,93.37
2023-02-11T06:24:47.841Z,93.48
2023-02-11T06:25:21.785Z,93.48
2023-02-11T06:26:21.780Z,93.58
2023-02-11T06:27:21.744Z,93.64
2023-02-11T06:28:21.773Z,93.54
2023-02-11T06:29:21.766Z,93.54
2023-02-11T06:30:21.723Z,93.74
2023-02-11T06:31:21.869Z,93.74
2023-02-11T06:32:42.169Z,93.74
2023-02-11T06:33:21.683Z,94.06
2023-02-11T06:34:21.680Z,94.06
2023-02-11T06:35:21.674Z,93.95
2023-02-11T06:36:21.677Z,94.16
2023-02-11T06:37:21.642Z,94.16
2023-02-11T06:38:21.664Z,94.06
2023-02-11T06:39:21.634Z,94.06
2023-02-11T06:40:21.632Z,94.06
2023-02-11T06:41:21.602Z,93.95
2023-02-11T06:42:21.593Z,94.16
2023-02-11T06:43:21.576Z,94.26
2023-02-11T06:44:21.592Z,94.47
2023-02-11T06:45:21.551Z,94.57
2023-02-11T06:46:21.570Z,94.68
2023-02-11T06:47:21.547Z,94.68
2023-02-11T06:48:21.526Z,94.98
2023-02-11T06:49:21.548Z,94.98
2023-02-11T06:50:21.505Z,95.09
2023-02-11T06:51:21.524Z,95.09
2023-02-11T06:52:21.484Z,95.19
2023-02-11T06:53:21.480Z,95.40
2023-02-11T06:54:21.464Z,95.50
2023-02-11T06:55:21.449Z,95.50
2023-02-11T06:56:21.467Z,95.50
2023-02-11T06:57:21.469Z,95.50
2023-02-11T06:58:21.408Z,95.61
2023-02-11T06:59:21.427Z,95.61
2023-02-11T07:00:21.401Z,95.50
2023-02-11T07:01:21.471Z,95.61
2023-02-11T07:02:21.561Z,95.71
2023-02-11T07:03:21.461Z,95.71
2023-02-11T07:04:21.357Z,95.61
2023-02-11T07:05:21.353Z,95.50
2023-02-11T07:06:21.336Z,95.46
2023-02-11T07:07:21.329Z,95.46
2023-02-11T07:08:21.318Z,95.46
2023-02-11T07:09:21.305Z,95.56
2023-02-11T07:10:21.313Z,95.56
2023-02-11T07:11:21.283Z,95.56
2023-02-11T07:12:21.266Z,95.56
2023-02-11T07:13:21.259Z,95.56
2023-02-11T07:14:21.259Z,95.67
2023-02-11T07:15:21.251Z,95.71
2023-02-11T07:16:21.298Z,95.67
2023-02-11T07:17:21.213Z,95.71
2023-02-11T07:18:21.201Z,95.67
2023-02-11T07:19:21.194Z,95.56
2023-02-11T07:20:21.218Z,95.67
2023-02-11T07:21:21.190Z,95.71
2023-02-11T07:22:21.174Z,95.56
2023-02-11T07:23:21.151Z,95.46
2023-02-11T07:24:21.140Z,95.56
2023-02-11T07:25:21.145Z,95.67
2023-02-11T07:26:21.126Z,95.56
2023-02-11T07:27:21.123Z,95.46
2023-02-11T07:28:21.145Z,95.46
2023-02-11T07:29:21.147Z,95.46
2023-02-11T07:30:21.103Z,95.46
2023-02-11T07:31:21.204Z,95.46
2023-02-11T07:32:21.194Z,95.46
2023-02-11T07:33:21.053Z,95.46
2023-02-11T07:34:21.091Z,95.36
2023-02-11T07:35:21.042Z,95.25
2023-02-11T07:36:21.013Z,95.25
2023-02-11T07:37:21.020Z,95.15
2023-02-11T07:38:21.000Z,95.04
2023-02-11T07:39:20.994Z,95.25
2023-02-11T07:40:20.990Z,95.25
2023-02-11T07:41:20.964Z,95.25
2023-02-11T07:42:20.960Z,95.25
2023-02-11T07:43:20.950Z,95.36
2023-02-11T07:44:20.959Z,95.25
2023-02-11T07:45:20.936Z,95.25
2023-02-11T07:46:21.012Z,95.25
2023-02-11T07:47:20.933Z,95.25
2023-02-11T07:48:20.911Z,95.15
2023-02-11T07:49:20.935Z,95.04
2023-02-11T07:50:20.904Z,94.94
2023-02-11T07:51:20.881Z,94.84
2023-02-11T07:52:20.894Z,94.73
2023-02-11T07:53:20.837Z,94.73
2023-02-11T07:54:20.836Z,94.73
2023-02-11T07:55:20.866Z,94.73
2023-02-11T07:56:20.804Z,94.63
2023-02-11T07:57:20.808Z,94.48
2023-02-11T07:58:20.782Z,94.59
2023-02-11T07:59:20.780Z,94.59
2023-02-11T08:00:21.274Z,94.48
2023-02-11T08:01:20.818Z,94.48
2023-02-11T08:02:20.795Z,94.48
2023-02-11T08:03:20.759Z,94.38
2023-02-11T08:04:20.725Z,94.79
2023-02-11T08:05:20.714Z,94.69
2023-02-11T08:06:26.815Z,94.69
2023-02-11T08:07:23.383Z,94.38
2023-02-11T08:08:21.444Z,93.97
2023-02-11T08:09:20.701Z,93.97
2023-02-11T08:10:20.813Z,93.97
2023-02-11T08:11:20.692Z,93.97
2023-02-11T08:12:20.647Z,93.97
2023-02-11T08:13:20.665Z,93.97
2023-02-11T08:14:20.638Z,93.97
2023-02-11T08:15:20.652Z,93.97
2023-02-11T08:16:20.868Z,93.97
2023-02-11T08:17:20.699Z,93.93
2023-02-11T08:18:20.593Z,93.93
2023-02-11T08:19:20.593Z,93.82
2023-02-11T08:20:20.609Z,93.82
2023-02-11T08:21:20.723Z,93.82
2023-02-11T08:22:20.569Z,93.82
2023-02-11T08:23:20.572Z,94.03
2023-02-11T08:24:20.524Z,94.13
2023-02-11T08:25:20.533Z,94.13
2023-02-11T08:26:20.493Z,94.03
2023-02-11T08:27:20.529Z,94.13
2023-02-11T08:28:20.562Z,94.23
2023-02-11T08:29:20.588Z,94.34
2023-02-11T08:30:20.622Z,94.54
2023-02-11T08:31:20.698Z,94.54
2023-02-11T08:32:20.521Z,94.65
2023-02-11T08:33:20.437Z,94.65
2023-02-11T08:34:20.495Z,94.81
2023-02-11T08:35:20.427Z,94.81
2023-02-11T08:36:20.391Z,94.81
2023-02-11T08:37:20.406Z,94.92
2023-02-11T08:38:20.376Z,95.12
2023-02-11T08:39:21.072Z,95.32
2023-02-11T08:40:20.426Z,95.43
2023-02-11T08:41:20.396Z,95.53
2023-02-11T08:42:20.319Z,95.53
2023-02-11T08:43:20.357Z,95.53
2023-02-11T08:44:20.300Z,95.64
2023-02-11T08:45:20.298Z,95.64
2023-02-11T08:46:20.374Z,95.74
2023-02-11T08:47:20.301Z,95.84
2023-02-11T08:48:20.264Z,96.05
2023-02-11T08:49:20.277Z,96.05
2023-02-11T08:50:20.251Z,96.15
2023-02-11T08:51:20.290Z,96.15
2023-02-11T08:52:20.228Z,96.15
2023-02-11T08:53:20.235Z,96.15
2023-02-11T08:54:20.231Z,96.05
2023-02-11T08:55:20.202Z,96.15
2023-02-11T08:56:20.199Z,96.15
2023-02-11T08:57:20.187Z,96.05
2023-02-11T08:58:20.196Z,95.95
2023-02-11T08:59:20.173Z,95.95
2023-02-11T09:00:20.147Z,95.74
2023-02-11T09:01:22.738Z,95.64
2023-02-11T09:02:20.224Z,95.64
2023-02-11T09:03:20.158Z,95.74
2023-02-11T09:04:20.102Z,95.64
2023-02-11T09:05:20.081Z,95.43
2023-02-11T09:06:20.148Z,95.53
2023-02-11T09:07:20.077Z,95.53
2023-02-11T09:08:20.076Z,95.53
2023-02-11T09:09:20.069Z,95.64
2023-02-11T09:10:20.028Z,95.74
2023-02-11T09:11:20.044Z,95.74
2023-02-11T09:12:20.111Z,95.74
2023-02-11T09:13:20.004Z,95.84
2023-02-11T09:14:20.023Z,95.84
2023-02-11T09:15:20.004Z,95.74
2023-02-11T09:16:20.067Z,95.84
2023-02-11T09:17:20.169Z,95.84
2023-02-11T09:18:19.983Z,95.74
2023-02-11T09:19:20.149Z,95.70
2023-02-11T09:20:19.998Z,95.80
2023-02-11T09:21:20.078Z,95.74
2023-02-11T09:22:19.969Z,95.80
2023-02-11T09:23:19.962Z,95.95
2023-02-11T09:24:19.935Z,95.90
2023-02-11T09:25:19.947Z,95.80
2023-02-11T09:26:20.000Z,95.90
2023-02-11T09:27:19.921Z,95.90
2023-02-11T09:28:20.095Z,95.90
2023-02-11T09:29:19.882Z,96.01
2023-02-11T09:30:20.000Z,96.01
2023-02-11T09:31:20.097Z,96.01
2023-02-11T09:32:19.824Z,96.01
2023-02-11T09:33:19.879Z,96.01
2023-02-11T09:34:19.954Z,96.01
2023-02-11T09:35:20.314Z,96.11
2023-02-11T09:36:20.038Z,96.11
2023-02-11T09:37:19.837Z,96.11
2023-02-11T09:38:19.888Z,96.11
2023-02-11T09:39:19.846Z,96.11
2023-02-11T09:40:19.901Z,96.11
2023-02-11T09:41:19.844Z,96.11
2023-02-11T09:42:19.799Z,96.21
2023-02-11T09:43:19.875Z,96.31
2023-02-11T09:44:19.757Z,96.31
2023-02-11T09:45:19.751Z,96.42
2023-02-11T09:46:19.754Z,96.73
2023-02-11T09:47:19.747Z,96.94
2023-02-11T09:48:19.770Z,97.25
2023-02-11T09:49:19.756Z,97.34
2023-02-11T09:50:19.636Z,97.55
2023-02-11T09:51:19.653Z,97.55
2023-02-11T09:52:19.610Z,97.66
2023-02-11T09:53:19.592Z,97.86
2023-02-11T09:54:19.582Z,97.86
2023-02-11T09:55:19.689Z,97.86
2023-02-11T09:56:19.586Z,97.86
2023-02-11T09:57:28.351Z,97.76
2023-02-11T09:58:19.722Z,97.76
2023-02-11T09:59:19.526Z,97.66
2023-02-11T10:00:19.537Z,97.55
2023-02-11T10:01:21.035Z,97.55
2023-02-11T10:02:19.515Z,97.45
2023-02-11T10:03:19.492Z,97.30
2023-02-11T10:04:19.556Z,97.30
2023-02-11T10:05:19.542Z,97.30
2023-02-11T10:06:19.489Z,97.20
2023-02-11T10:07:19.451Z,97.30
2023-02-11T10:08:19.449Z,97.30
2023-02-11T10:09:19.426Z,97.20
2023-02-11T10:10:19.414Z,97.20
2023-02-11T10:11:30.841Z,97.20
2023-02-11T10:12:19.419Z,97.09
2023-02-11T10:13:19.420Z,97.09
2023-02-11T10:14:19.436Z,97.20
2023-02-11T10:15:19.384Z,97.20
2023-02-11T10:16:19.521Z,97.30
2023-02-11T10:17:19.347Z,97.41
2023-02-11T10:18:19.381Z,97.41
2023-02-11T10:19:19.333Z,97.41
2023-02-11T10:20:19.323Z,97.51
2023-02-11T10:21:19.339Z,97.82
2023-02-11T10:22:19.302Z,97.92
2023-02-11T10:23:19.301Z,98.13
2023-02-11T10:24:19.302Z,98.33
2023-02-11T10:25:19.288Z,98.54
2023-02-11T10:26:19.313Z,98.65
2023-02-11T10:27:19.329Z,98.96
2023-02-11T10:28:19.326Z,99.16
2023-02-11T10:29:19.252Z,99.26
2023-02-11T10:30:19.261Z,99.47
2023-02-11T10:31:19.275Z,99.57
2023-02-11T10:32:19.188Z,99.57
2023-02-11T10:33:19.189Z,99.68
2023-02-11T10:34:19.205Z,99.78
2023-02-11T10:35:19.157Z,99.78
2023-02-11T10:36:19.163Z,99.57
2023-02-11T10:37:19.912Z,99.57
2023-02-11T10:38:19.172Z,99.68
2023-02-11T10:39:19.188Z,99.78
2023-02-11T10:40:19.237Z,99.78
2023-02-11T10:41:19.137Z,99.78
2023-02-11T10:42:19.099Z,99.88
2023-02-11T10:43:19.096Z,99.88
2023-02-11T10:44:19.098Z,99.99
2023-02-11T10:45:19.052Z,99.99
2023-02-11T10:46:19.080Z,99.99
2023-02-11T10:47:19.037Z,99.99
2023-02-11T10:48:19.043Z,99.99
2023-02-11T10:49:19.173Z,99.99
2023-02-11T10:50:19.086Z,99.99
2023-02-11T10:51:19.066Z,99.99
2023-02-11T10:52:19.034Z,99.99
2023-02-11T10:53:18.977Z,99.99
2023-02-11T10:54:18.982Z,99.99
2023-02-11T10:55:19.014Z,99.99
2023-02-11T10:56:19.002Z,99.99
2023-02-11T10:57:18.932Z,99.99
2023-02-11T10:58:18.930Z,99.99
2023-02-11T10:59:21.372Z,99.99
2023-02-11T11:00:18.991Z,99.99
2023-02-11T11:01:24.822Z,99.99
2023-02-11T11:02:18.918Z,99.99
2023-02-11T11:03:18.876Z,99.99
2023-02-11T11:04:18.953Z,99.99
2023-02-11T11:05:18.866Z,99.99
2023-02-11T11:06:18.919Z,99.99
2023-02-11T11:07:18.839Z,99.99
2023-02-11T11:08:18.851Z,99.99
2023-02-11T11:09:18.816Z,99.99
2023-02-11T11:10:18.819Z,99.99
2023-02-11T11:11:18.828Z,99.99
2023-02-11T11:12:18.832Z,99.99
2023-02-11T11:13:18.783Z,99.99
2023-02-11T11:14:18.771Z,99.99
2023-02-11T11:15:18.773Z,99.99
2023-02-11T11:16:18.824Z,99.99
2023-02-11T11:17:18.719Z,99.99
2023-02-11T11:18:22.335Z,99.99
2023-02-11T11:19:18.702Z,99.99
2023-02-11T11:20:18.752Z,99.99
2023-02-11T11:21:18.734Z,99.99
2023-02-11T11:22:18.729Z,99.99
2023-02-11T11:23:18.663Z,99.99
2023-02-11T11:24:18.739Z,99.99
2023-02-11T11:25:18.708Z,99.99
2023-02-11T11:26:18.656Z,99.99
2023-02-11T11:27:18.653Z,99.99
2023-02-11T11:28:18.772Z,99.99
2023-02-11T11:29:18.604Z,99.99
2023-02-11T11:30:18.606Z,99.99
2023-02-11T11:31:18.718Z,99.99
2023-02-11T11:32:20.516Z,99.99
2023-02-11T11:33:18.575Z,99.99
2023-02-11T11:34:18.568Z,99.99
2023-02-11T11:35:18.562Z,99.99
2023-02-11T11:36:18.571Z,99.99
2023-02-11T11:37:18.520Z,99.99
2023-02-11T11:38:18.546Z,99.99
2023-02-11T11:39:18.527Z,99.99
2023-02-11T11:40:18.504Z,99.99
2023-02-11T11:41:18.506Z,99.99
2023-02-11T11:42:18.500Z,99.99
2023-02-11T11:43:20.181Z,99.99
2023-02-11T11:44:18.458Z,99.99
2023-02-11T11:45:18.457Z,99.99
2023-02-11T11:46:18.464Z,99.99
2023-02-11T11:47:18.430Z,99.99
2023-02-11T11:48:18.424Z,99.99
2023-02-11T11:49:18.404Z,99.99
2023-02-11T11:50:21.004Z,99.99
2023-02-11T11:51:18.380Z,99.99
2023-02-11T11:52:18.441Z,99.99
2023-02-11T11:53:18.347Z,99.99
2023-02-11T11:54:18.379Z,99.99
2023-02-11T11:55:18.352Z,99.99
2023-02-11T11:56:18.447Z,99.99
2023-02-11T11:57:18.358Z,99.99
2023-02-11T11:58:18.726Z,99.99
2023-02-11T11:59:19.049Z,99.99
2023-02-11T12:00:18.504Z,99.99
2023-02-11T12:01:18.318Z,99.99
2023-02-11T12:02:18.344Z,99.99
2023-02-11T12:03:18.259Z,99.99
2023-02-11T12:04:18.245Z,99.99
2023-02-11T12:05:18.247Z,99.99
2023-02-11T12:06:18.240Z,99.99
2023-02-11T12:07:18.250Z,99.99
2023-02-11T12:08:18.246Z,99.99
2023-02-11T12:09:18.218Z,99.99
2023-02-11T12:10:18.217Z,99.99
2023-02-11T12:11:18.175Z,99.99
2023-02-11T12:12:18.180Z,99.99
2023-02-11T12:13:18.171Z,99.99
2023-02-11T12:14:18.168Z,99.99
2023-02-11T12:15:18.124Z,99.99
2023-02-11T12:16:18.148Z,99.99
2023-02-11T12:17:18.166Z,99.99
2023-02-11T12:18:18.105Z,99.99
2023-02-11T12:19:18.129Z,99.99
2023-02-11T12:20:18.116Z,99.99
2023-02-11T12:21:18.069Z,99.99
2023-02-11T12:22:18.060Z,99.99
2023-02-11T12:23:18.056Z,99.99
2023-02-11T12:24:18.035Z,99.99
2023-02-11T12:25:18.025Z,99.99
2023-02-11T12:26:18.006Z,99.90
2023-02-11T12:27:18.011Z,99.79
2023-02-11T12:28:18.071Z,99.90
2023-02-11T12:29:17.976Z,99.99
2023-02-11T12:30:17.969Z,99.99
2023-02-11T12:31:18.041Z,99.99
2023-02-11T12:32:17.968Z,99.99
2023-02-11T12:33:17.930Z,99.99
2023-02-11T12:34:17.927Z,99.99
2023-02-11T12:35:17.912Z,99.99
2023-02-11T12:36:17.909Z,99.95
2023-02-11T12:37:17.933Z,99.99
2023-02-11T12:38:17.901Z,99.99
2023-02-11T12:39:17.887Z,99.99
2023-02-11T12:40:17.865Z,99.99
2023-02-11T12:41:17.859Z,99.99
2023-02-11T12:42:17.863Z,99.99
2023-02-11T12:43:17.840Z,99.99
2023-02-11T12:44:17.850Z,99.99
2023-02-11T12:45:17.817Z,99.99
2023-02-11T12:46:17.991Z,99.99
2023-02-11T12:47:17.798Z,99.99
2023-02-11T12:48:17.787Z,99.99
2023-02-11T12:49:17.842Z,99.99
2023-02-11T12:50:17.764Z,99.99
2023-02-11T12:51:17.752Z,99.99
2023-02-11T12:52:17.793Z,99.99